チューク諸島 の空港の天気 - METARとTAF

チューク国際空港 ( PTKK / TKK ) - ミクロネシア連邦 チューク諸島
飛行場実況気象(Metar)
観測時間04/22 02:52 +10 (04/21 16:52 UTC)
風向・風速北東 4m/s
視程10km以上
天気現象
少しの雲 雲底高度 430m
全天の4割程度の雲 雲底高度 8840m
気温28.4℃
湿度79%
気圧1008.4hPa
METARPTKK 211652Z 05008KT 15SM FEW014 SCT290 28/24 A2978 RMK SLP084 T02840243
過去の天気等 Google飛行場航空写真 Wunderground天気予報

過去48時間のMETAR

飛行場予報(TAF)
発表時間: 4/21 21:29 +10 (4/21 11:29 UTC)
予報対象時間: 21日22時 +10 ~ 22日22時 +10
風向・風速東北東 5m/s
視程10km以上
天気現象周辺でしゅう雨
全天の4割程度の雲 雲底高度 460m
全天の4割程度の雲 雲底高度 1220m
PTKK 211129Z 2112/2212 06010KT P6SM VCSH SCT015 SCT040